Burrows, Indiana
Current Conditions -  °F | °C
As of 6:15 AM on Monday 20 Oct 2014 (Local Time) from KGGP Reporting Station
Overcast Overcast  
Wind Chill: 44°   Ceiling: 7000
Heat Index: 48°   Visibility: 10mi
Dew Point: 43°   Wind: 10mph
Humidity: 82%   Direction: 210°SSW
Pressure: 29.91"   Gusts: NA
Location:  40.68°N, 86.51°W
Report Text: KGGP 201015Z AUTO 21009KT 10SM BKN070 OVC080 09/06 A2991 RMK AO2
Loading
Personal Weather Stations






























Interactive Weather Map
Tropical Storm Tracking
New forecast layout! Learn more

10-Day Weather Forecast

Advertisements
Track Severe Weather on mobile